Time;durP1;ratioP1;P1;durP2;ratioP2;P2;SDS_P1;SDS_P2;PMS_P1;PMS_P2;Temp;Humidity;BMP_temperature;BMP_pressure;BME280_temperature;BME280_humidity;BME280_pressure;Samples;Min_cycle;Max_cycle;Signal;HPM_P1;HPM_P2
2021/10/15 00:00:59;;;;;;;11.60;6.32;;;;;;;;;;5035150;28;20049;-79
2021/10/15 00:03:26;;;;;;;13.98;6.60;;;;;;;;;;5035478;28;20052;-78
2021/10/15 00:05:54;;;;;;;14.35;7.38;;;;;;;;;;5035284;28;20463;-78
2021/10/15 00:08:21;;;;;;;14.48;7.13;;;;;;;;;;5034898;28;20053;-78
2021/10/15 00:10:48;;;;;;;11.20;5.78;;;;;;;;;;5034494;28;20115;-79
2021/10/15 00:13:15;;;;;;;10.40;6.05;;;;;;;;;;5034842;28;20099;-79
2021/10/15 00:15:42;;;;;;;12.40;6.30;;;;;;;;;;5034903;28;20053;-78
2021/10/15 00:18:08;;;;;;;10.82;6.15;;;;;;;;;;5034649;28;20053;-78
2021/10/15 00:20:35;;;;;;;9.32;5.85;;;;;;;;;;5034913;28;20042;-78
2021/10/15 00:23:04;;;;;;;10.73;6.38;;;;;;;;;;5039335;28;20086;-77
2021/10/15 00:25:30;;;;;;;11.15;6.15;;;;;;;;;;5057014;28;20041;-77
2021/10/15 00:27:57;;;;;;;12.43;6.45;;;;;;;;;;5056940;28;20060;-78
2021/10/15 00:30:24;;;;;;;12.07;5.40;;;;;;;;;;5057228;28;20075;-79
2021/10/15 00:32:51;;;;;;;12.55;6.28;;;;;;;;;;5041989;28;20045;-76
2021/10/15 00:38:40;;;;;;;10.05;5.72;;;;;;;;;;5031013;28;20053;-77
2021/10/15 00:41:08;;;;;;;11.65;6.63;;;;;;;;;;5032889;28;20080;-78
2021/10/15 00:43:36;;;;;;;10.82;5.93;;;;;;;;;;5032708;28;20048;-78
2021/10/15 00:46:03;;;;;;;11.25;6.35;;;;;;;;;;5033174;28;20080;-77
2021/10/15 00:48:30;;;;;;;11.70;6.18;;;;;;;;;;5033265;28;20049;-77
2021/10/15 00:54:20;;;;;;;13.50;7.55;;;;;;;;;;5029284;28;20095;-77
2021/10/15 00:56:47;;;;;;;14.35;6.80;;;;;;;;;;5031993;28;20042;-77
2021/10/15 00:59:14;;;;;;;13.68;6.07;;;;;;;;;;5032169;28;20500;-77
2021/10/15 01:01:41;;;;;;;11.48;6.07;;;;;;;;;;5032213;28;20049;-77
2021/10/15 01:04:08;;;;;;;10.75;5.60;;;;;;;;;;5033409;28;20578;-78
2021/10/15 01:06:36;;;;;;;10.32;5.90;;;;;;;;;;5031905;28;20065;-77
2021/10/15 01:09:04;;;;;;;9.70;4.85;;;;;;;;;;5032641;28;20324;-78
2021/10/15 01:11:32;;;;;;;9.73;5.15;;;;;;;;;;5032782;28;20516;-78
2021/10/15 01:17:21;;;;;;;7.65;4.45;;;;;;;;;;5028195;28;20045;-78
2021/10/15 01:19:54;;;;;;;8.50;4.47;;;;;;;;;;5031519;28;20050;-78
2021/10/15 01:22:21;;;;;;;8.85;4.40;;;;;;;;;;5031705;28;20482;-78
2021/10/15 01:24:48;;;;;;;9.48;5.35;;;;;;;;;;5031753;28;20111;-78
2021/10/15 01:27:14;;;;;;;9.27;4.30;;;;;;;;;;5033631;28;20045;-78
2021/10/15 01:29:41;;;;;;;7.53;4.18;;;;;;;;;;5035287;28;20053;-78
2021/10/15 01:32:09;;;;;;;9.73;3.97;;;;;;;;;;5035808;28;20076;-77
2021/10/15 01:34:37;;;;;;;8.10;4.05;;;;;;;;;;5036712;28;20049;-76
2021/10/15 01:37:05;;;;;;;10.32;4.38;;;;;;;;;;5035173;28;20100;-77
2021/10/15 01:39:32;;;;;;;6.65;3.60;;;;;;;;;;5035406;28;20123;-77
2021/10/15 01:41:59;;;;;;;10.65;4.20;;;;;;;;;;5035401;28;20566;-77
2021/10/15 01:44:26;;;;;;;9.63;3.95;;;;;;;;;;5035151;28;20046;-77
2021/10/15 01:46:53;;;;;;;8.85;4.68;;;;;;;;;;5035106;28;20099;-77
2021/10/15 01:49:20;;;;;;;6.85;3.88;;;;;;;;;;5035213;28;20041;-77
2021/10/15 01:51:47;;;;;;;8.20;3.63;;;;;;;;;;5035655;28;20096;-77
2021/10/15 01:54:15;;;;;;;6.93;3.78;;;;;;;;;;5035321;28;20049;-77
2021/10/15 01:56:41;;;;;;;8.82;4.05;;;;;;;;;;5038345;28;20045;-77
2021/10/15 01:59:08;;;;;;;10.20;3.80;;;;;;;;;;5042202;28;20084;-78
2021/10/15 02:01:36;;;;;;;7.20;4.15;;;;;;;;;;5041104;28;20102;-78
2021/10/15 02:04:02;;;;;;;9.20;4.10;;;;;;;;;;5040117;28;20088;-77
2021/10/15 02:06:29;;;;;;;9.65;4.40;;;;;;;;;;5039933;28;20045;-78
2021/10/15 02:08:56;;;;;;;8.52;4.07;;;;;;;;;;5039386;28;20072;-77
2021/10/15 02:11:24;;;;;;;7.93;4.25;;;;;;;;;;5039591;28;20049;-78
2021/10/15 02:13:51;;;;;;;8.40;4.30;;;;;;;;;;5036079;28;20483;-78
2021/10/15 02:16:17;;;;;;;8.68;4.18;;;;;;;;;;5036151;28;20080;-78
2021/10/15 02:18:44;;;;;;;11.05;4.78;;;;;;;;;;5035519;28;20049;-78
2021/10/15 02:21:11;;;;;;;8.27;4.25;;;;;;;;;;5035990;28;20136;-78
2021/10/15 02:23:38;;;;;;;9.88;4.80;;;;;;;;;;5035673;28;20115;-79
2021/10/15 02:26:04;;;;;;;10.30;4.97;;;;;;;;;;5035572;28;20080;-78
2021/10/15 02:28:33;;;;;;;10.90;5.40;;;;;;;;;;5035362;28;20263;-77
2021/10/15 02:30:59;;;;;;;15.45;6.13;;;;;;;;;;5035179;28;20049;-77
2021/10/15 02:33:26;;;;;;;10.88;5.95;;;;;;;;;;5035424;28;20053;-78
2021/10/15 02:35:53;;;;;;;15.20;8.60;;;;;;;;;;5035226;28;20096;-78
2021/10/15 02:38:20;;;;;;;14.82;7.30;;;;;;;;;;5035845;28;20050;-78
2021/10/15 02:40:46;;;;;;;13.93;7.63;;;;;;;;;;5039663;28;20046;-78
2021/10/15 02:43:13;;;;;;;14.23;8.40;;;;;;;;;;5037735;28;20050;-78
2021/10/15 02:45:42;;;;;;;19.48;9.73;;;;;;;;;;5034714;28;20046;-78
2021/10/15 02:48:09;;;;;;;16.48;9.48;;;;;;;;;;5034427;28;20491;-78
2021/10/15 02:50:36;;;;;;;15.13;8.98;;;;;;;;;;5034823;28;20042;-77
2021/10/15 02:53:03;;;;;;;16.90;8.80;;;;;;;;;;5034824;28;20405;-77
2021/10/15 02:55:29;;;;;;;18.25;8.30;;;;;;;;;;5034157;28;20180;-77
2021/10/15 02:57:56;;;;;;;14.85;7.75;;;;;;;;;;5033830;28;20496;-78
2021/10/15 03:00:23;;;;;;;14.65;8.45;;;;;;;;;;5033919;28;20554;-78
2021/10/15 03:02:51;;;;;;;15.15;8.13;;;;;;;;;;5033814;28;20049;-78
2021/10/15 03:05:18;;;;;;;15.52;8.20;;;;;;;;;;5034170;28;20504;-78
2021/10/15 03:07:44;;;;;;;14.38;7.82;;;;;;;;;;5034150;28;20384;-77
2021/10/15 03:10:11;;;;;;;12.18;7.55;;;;;;;;;;5033986;28;20049;-78
2021/10/15 03:12:39;;;;;;;12.57;7.18;;;;;;;;;;5033714;28;20133;-78
2021/10/15 03:15:09;;;;;;;14.63;7.38;;;;;;;;;;5033710;28;20049;-78
2021/10/15 03:17:36;;;;;;;15.43;8.10;;;;;;;;;;5034272;28;20056;-78
2021/10/15 03:20:05;;;;;;;17.00;7.78;;;;;;;;;;5034137;28;20400;-77
2021/10/15 03:22:34;;;;;;;13.43;6.93;;;;;;;;;;5034167;28;20397;-77
2021/10/15 03:25:01;;;;;;;13.23;7.32;;;;;;;;;;5034394;28;20467;-77
2021/10/15 03:27:28;;;;;;;13.45;7.20;;;;;;;;;;5033298;28;20574;-77
2021/10/15 03:29:54;;;;;;;13.57;6.45;;;;;;;;;;5033321;28;20499;-78
2021/10/15 03:32:22;;;;;;;13.63;7.82;;;;;;;;;;5033777;28;20107;-77
2021/10/15 03:34:48;;;;;;;12.57;6.68;;;;;;;;;;5033003;28;20113;-78
2021/10/15 03:37:19;;;;;;;11.63;7.00;;;;;;;;;;5032689;28;20046;-77
2021/10/15 03:39:46;;;;;;;;;;;;;;;;;;5033770;28;20045;-77
2021/10/15 03:42:13;;;;;;;15.80;7.43;;;;;;;;;;5033744;28;19974;-79
2021/10/15 03:44:41;;;;;;;13.88;6.97;;;;;;;;;;5037535;28;20076;-77
2021/10/15 03:47:07;;;;;;;14.35;7.30;;;;;;;;;;5043241;28;20053;-77
2021/10/15 03:49:36;;;;;;;14.50;6.85;;;;;;;;;;5041776;28;20046;-77
2021/10/15 03:52:04;;;;;;;14.90;6.95;;;;;;;;;;5039215;28;20045;-79
2021/10/15 04:00:56;;;;;;;15.13;6.80;;;;;;;;;;5016505;28;20387;-78
2021/10/15 04:03:23;;;;;;;13.43;6.95;;;;;;;;;;5034081;28;20119;-78
2021/10/15 04:05:50;;;;;;;12.82;6.55;;;;;;;;;;5035395;28;20053;-78
2021/10/15 04:08:16;;;;;;;12.93;7.07;;;;;;;;;;5034882;28;20053;-78
2021/10/15 04:10:43;;;;;;;15.10;7.45;;;;;;;;;;5035848;28;20049;-78
2021/10/15 04:13:12;;;;;;;13.40;7.47;;;;;;;;;;5034971;28;20246;-79
2021/10/15 04:15:40;;;;;;;14.98;8.32;;;;;;;;;;5035056;28;20056;-77
2021/10/15 04:18:09;;;;;;;18.48;8.77;;;;;;;;;;5034478;28;20049;-78
2021/10/15 04:20:35;;;;;;;13.23;7.53;;;;;;;;;;5035387;28;20045;-78
2021/10/15 04:23:02;;;;;;;12.63;6.97;;;;;;;;;;5034379;28;20103;-79
2021/10/15 04:25:31;;;;;;;13.30;6.93;;;;;;;;;;5033200;28;20049;-77
2021/10/15 04:28:33;;;;;;;13.88;7.75;;;;;;;;;;5033479;28;20132;-78
2021/10/15 04:30:59;;;;;;;12.13;7.20;;;;;;;;;;5031146;28;20497;-78
2021/10/15 04:33:28;;;;;;;13.70;7.10;;;;;;;;;;5034862;28;20111;-78
2021/10/15 04:35:54;;;;;;;14.02;6.95;;;;;;;;;;5033129;28;20072;-78
2021/10/15 04:38:21;;;;;;;15.57;7.82;;;;;;;;;;5033556;28;20578;-77
2021/10/15 04:40:49;;;;;;;15.73;7.18;;;;;;;;;;5034401;28;20049;-78
2021/10/15 04:43:16;;;;;;;21.38;9.13;;;;;;;;;;5034474;28;20385;-78
2021/10/15 04:45:44;;;;;;;15.75;7.90;;;;;;;;;;5034679;28;20361;-78
2021/10/15 04:48:30;;;;;;;17.75;8.32;;;;;;;;;;5032421;28;20057;-78
2021/10/15 04:50:57;;;;;;;16.30;8.13;;;;;;;;;;5030244;28;21197;-78
2021/10/15 04:53:24;;;;;;;19.15;9.85;;;;;;;;;;5033329;28;20080;-78
2021/10/15 04:55:53;;;;;;;18.10;8.15;;;;;;;;;;5033198;28;20424;-77
2021/10/15 04:58:23;;;;;;;16.73;9.77;;;;;;;;;;5030692;28;20068;-77
2021/10/15 05:00:49;;;;;;;14.57;8.43;;;;;;;;;;5032732;28;20054;-76
2021/10/15 05:03:16;;;;;;;18.27;8.98;;;;;;;;;;5036196;28;20107;-77
2021/10/15 05:05:44;;;;;;;15.57;8.50;;;;;;;;;;5036979;28;20111;-77
2021/10/15 05:08:13;;;;;;;16.45;9.05;;;;;;;;;;5039805;28;20115;-78
2021/10/15 05:10:41;;;;;;;18.05;9.10;;;;;;;;;;5039584;28;20041;-78
2021/10/15 05:13:08;;;;;;;13.65;8.27;;;;;;;;;;5040429;28;20069;-77
2021/10/15 05:15:35;;;;;;;15.32;8.98;;;;;;;;;;5038861;28;20049;-77
2021/10/15 05:18:02;;;;;;;16.45;9.73;;;;;;;;;;5039685;28;20451;-78
2021/10/15 05:20:30;;;;;;;14.52;9.23;;;;;;;;;;5038017;28;20049;-76
2021/10/15 05:22:58;;;;;;;17.35;9.50;;;;;;;;;;5037216;28;20095;-77
2021/10/15 05:25:25;;;;;;;16.52;9.25;;;;;;;;;;5037697;28;20459;-79
2021/10/15 05:27:52;;;;;;;16.85;9.13;;;;;;;;;;5037836;28;20053;-79
2021/10/15 05:30:18;;;;;;;16.50;8.98;;;;;;;;;;5038853;28;20046;-78
2021/10/15 05:32:45;;;;;;;18.60;10.18;;;;;;;;;;5038028;28;20049;-79
2021/10/15 05:36:04;;;;;;;16.02;9.75;;;;;;;;;;5037081;28;20049;-78
2021/10/15 05:38:32;;;;;;;16.10;8.38;;;;;;;;;;5033536;28;20054;-78
2021/10/15 05:40:58;;;;;;;14.70;8.07;;;;;;;;;;5037724;28;20049;-77
2021/10/15 05:43:25;;;;;;;15.77;7.78;;;;;;;;;;5037007;28;20076;-79
2021/10/15 05:45:52;;;;;;;16.23;8.23;;;;;;;;;;5039030;28;20106;-78
2021/10/15 05:48:19;;;;;;;16.75;7.93;;;;;;;;;;5037680;28;20041;-79
2021/10/15 05:50:46;;;;;;;13.70;6.65;;;;;;;;;;5038495;28;20050;-78
2021/10/15 05:53:15;;;;;;;14.90;6.82;;;;;;;;;;5039032;28;20049;-79
2021/10/15 05:59:07;;;;;;;12.30;7.05;;;;;;;;;;5034609;28;20113;-78
2021/10/15 06:01:41;;;;;;;16.03;7.20;;;;;;;;;;5037040;28;20050;-77
2021/10/15 06:15:08;;;;;;;13.95;6.05;;;;;;;;;;5035051;28;20052;-77
2021/10/15 06:17:42;;;;;;;11.18;5.55;;;;;;;;;;5037240;28;20488;-77
2021/10/15 06:26:45;;;;;;;13.40;7.28;;;;;;;;;;5033418;28;20072;-78
2021/10/15 06:29:12;;;;;;;16.13;7.45;;;;;;;;;;5037835;28;20097;-78
2021/10/15 06:31:41;;;;;;;18.95;7.95;;;;;;;;;;5037730;28;20042;-77
2021/10/15 06:34:08;;;;;;;14.52;6.57;;;;;;;;;;5038720;28;20104;-78
2021/10/15 06:36:34;;;;;;;17.30;6.53;;;;;;;;;;5038896;28;20455;-78
2021/10/15 06:39:01;;;;;;;14.55;6.53;;;;;;;;;;5039099;28;20558;-78
2021/10/15 06:41:28;;;;;;;15.05;7.25;;;;;;;;;;5039527;28;20049;-78
2021/10/15 06:43:55;;;;;;;17.65;7.75;;;;;;;;;;5039421;28;20053;-78
2021/10/15 06:46:21;;;;;;;17.52;6.60;;;;;;;;;;5037813;28;20042;-80
2021/10/15 06:48:50;;;;;;;11.73;6.47;;;;;;;;;;5036184;28;20132;-78
2021/10/15 06:51:17;;;;;;;13.63;6.82;;;;;;;;;;5038015;28;20647;-78
2021/10/15 06:53:45;;;;;;;21.00;9.30;;;;;;;;;;5038723;28;20049;-79
2021/10/15 06:56:11;;;;;;;15.43;7.97;;;;;;;;;;5038922;28;20073;-79
2021/10/15 06:58:38;;;;;;;13.15;7.00;;;;;;;;;;5037469;28;20076;-78
2021/10/15 07:01:05;;;;;;;8.75;5.57;;;;;;;;;;5035127;28;20049;-79
2021/10/15 07:03:32;;;;;;;12.18;5.03;;;;;;;;;;5044356;28;20046;-77
2021/10/15 07:06:00;;;;;;;13.98;6.13;;;;;;;;;;5047977;28;20615;-78
2021/10/15 07:08:28;;;;;;;10.10;6.13;;;;;;;;;;5048235;28;20056;-78
2021/10/15 07:10:55;;;;;;;14.10;5.25;;;;;;;;;;5042034;28;20049;-77
2021/10/15 07:13:22;;;;;;;9.68;5.03;;;;;;;;;;5042398;28;20049;-78
2021/10/15 07:15:49;;;;;;;10.35;5.03;;;;;;;;;;5040187;28;20045;-78
2021/10/15 07:18:15;;;;;;;10.15;4.50;;;;;;;;;;5038660;28;20041;-78
2021/10/15 07:20:43;;;;;;;7.32;4.32;;;;;;;;;;5039813;28;20046;-78
2021/10/15 07:23:12;;;;;;;11.10;5.57;;;;;;;;;;5040271;28;20045;-76
2021/10/15 07:25:39;;;;;;;9.65;3.60;;;;;;;;;;5037080;28;20451;-78
2021/10/15 07:28:07;;;;;;;7.93;3.50;;;;;;;;;;5037007;28;20080;-78
2021/10/15 07:30:34;;;;;;;7.85;3.80;;;;;;;;;;5040962;28;20042;-77
2021/10/15 07:33:01;;;;;;;9.52;4.60;;;;;;;;;;5039631;28;20455;-78
2021/10/15 07:35:28;;;;;;;7.47;3.55;;;;;;;;;;5039509;28;20171;-78
2021/10/15 07:37:55;;;;;;;10.63;3.85;;;;;;;;;;5036720;28;20099;-76
2021/10/15 07:40:23;;;;;;;8.77;3.53;;;;;;;;;;5037783;28;20049;-76
2021/10/15 07:42:50;;;;;;;10.70;4.38;;;;;;;;;;5041683;28;20079;-77
2021/10/15 07:45:16;;;;;;;7.03;3.78;;;;;;;;;;5041598;28;20049;-77
2021/10/15 07:47:43;;;;;;;6.65;3.45;;;;;;;;;;5042039;28;20530;-78
2021/10/15 07:50:10;;;;;;;9.70;4.55;;;;;;;;;;5042160;28;20049;-77
2021/10/15 07:52:44;;;;;;;8.75;3.85;;;;;;;;;;5041418;28;20071;-77
2021/10/15 07:55:11;;;;;;;9.93;4.30;;;;;;;;;;5042905;28;20045;-77
2021/10/15 07:57:39;;;;;;;10.95;5.05;;;;;;;;;;5041977;28;20056;-77
2021/10/15 08:00:08;;;;;;;10.05;4.88;;;;;;;;;;5043109;28;20111;-77
2021/10/15 08:02:35;;;;;;;8.85;4.65;;;;;;;;;;5042330;28;20558;-77
2021/10/15 08:05:03;;;;;;;8.50;4.80;;;;;;;;;;5042262;28;20042;-77
2021/10/15 08:07:30;;;;;;;8.82;4.47;;;;;;;;;;5042436;28;20048;-77
2021/10/15 08:09:57;;;;;;;9.00;4.80;;;;;;;;;;5043013;28;20041;-77
2021/10/15 08:12:23;;;;;;;10.60;5.25;;;;;;;;;;5042766;28;20452;-77
2021/10/15 08:14:51;;;;;;;10.38;4.82;;;;;;;;;;5042209;28;20080;-77
2021/10/15 08:17:18;;;;;;;9.70;5.28;;;;;;;;;;5042732;28;20049;-78
2021/10/15 08:19:45;;;;;;;9.57;4.60;;;;;;;;;;5042639;28;20053;-77
2021/10/15 08:22:12;;;;;;;9.05;4.93;;;;;;;;;;5042277;28;20053;-78
2021/10/15 08:24:39;;;;;;;8.68;4.43;;;;;;;;;;5041491;28;20050;-78
2021/10/15 08:27:06;;;;;;;10.43;4.88;;;;;;;;;;5042022;28;20095;-78
2021/10/15 08:29:37;;;;;;;7.57;4.45;;;;;;;;;;5041949;28;20053;-78
2021/10/15 08:32:07;;;;;;;9.25;4.60;;;;;;;;;;5040819;28;20079;-77
2021/10/15 08:34:34;;;;;;;10.05;4.93;;;;;;;;;;5040404;28;20054;-77
2021/10/15 08:37:02;;;;;;;10.32;4.25;;;;;;;;;;5038661;28;20049;-77
2021/10/15 08:39:29;;;;;;;8.70;3.97;;;;;;;;;;5038838;28;20057;-78
2021/10/15 08:41:57;;;;;;;8.50;3.92;;;;;;;;;;5037498;28;20372;-78
2021/10/15 08:44:27;;;;;;;10.10;4.05;;;;;;;;;;5037071;28;20080;-78
2021/10/15 08:46:55;;;;;;;8.45;4.47;;;;;;;;;;5033759;28;20416;-77
2021/10/15 08:49:24;;;;;;;9.10;4.45;;;;;;;;;;5033534;28;20056;-77
2021/10/15 08:55:13;;;;;;;11.40;4.78;;;;;;;;;;5033959;28;20087;-79
2021/10/15 08:57:40;;;;;;;8.30;5.03;;;;;;;;;;5035113;28;20099;-77
2021/10/15 09:00:21;;;;;;;10.55;4.95;;;;;;;;;;5034022;28;20054;-78
2021/10/15 09:03:05;;;;;;;15.02;7.35;;;;;;;;;;5035402;28;20072;-77
2021/10/15 09:05:33;;;;;;;16.55;7.22;;;;;;;;;;5034340;28;20103;-77
2021/10/15 09:08:01;;;;;;;11.07;5.53;;;;;;;;;;5035513;28;20045;-78
2021/10/15 09:10:32;;;;;;;9.85;4.82;;;;;;;;;;5037154;28;20046;-78
2021/10/15 09:12:58;;;;;;;11.10;4.68;;;;;;;;;;5033783;28;20045;-77
2021/10/15 09:15:32;;;;;;;10.65;4.72;;;;;;;;;;5032787;28;20096;-77
2021/10/15 09:18:09;;;;;;;8.80;4.28;;;;;;;;;;5032693;28;20049;-77
2021/10/15 09:20:37;;;;;;;9.05;4.43;;;;;;;;;;5034211;28;20045;-78
2021/10/15 09:23:05;;;;;;;12.13;4.80;;;;;;;;;;5035304;28;20053;-79
2021/10/15 09:25:33;;;;;;;8.93;4.03;;;;;;;;;;5034708;28;20096;-78
2021/10/15 09:28:00;;;;;;;10.38;5.63;;;;;;;;;;5034874;28;20099;-78
2021/10/15 09:30:29;;;;;;;7.72;4.60;;;;;;;;;;5034732;28;20489;-78
2021/10/15 09:32:57;;;;;;;8.35;4.70;;;;;;;;;;5035061;28;20046;-78
2021/10/15 09:35:27;;;;;;;17.98;5.18;;;;;;;;;;5034870;28;20177;-77
2021/10/15 09:38:00;;;;;;;9.98;5.55;;;;;;;;;;5032342;28;20046;-77
2021/10/15 09:40:29;;;;;;;9.07;5.28;;;;;;;;;;5033923;28;20508;-77
2021/10/15 09:42:57;;;;;;;10.57;4.80;;;;;;;;;;5032861;28;20041;-78
2021/10/15 09:45:27;;;;;;;11.68;5.30;;;;;;;;;;5031987;28;20052;-77
2021/10/15 09:47:56;;;;;;;11.82;5.40;;;;;;;;;;5033069;28;20046;-78
2021/10/15 09:50:25;;;;;;;10.73;5.53;;;;;;;;;;5035631;28;20050;-77
2021/10/15 09:52:56;;;;;;;13.43;6.30;;;;;;;;;;5037049;28;20045;-76
2021/10/15 09:55:28;;;;;;;11.70;6.20;;;;;;;;;;5035471;28;20076;-78
2021/10/15 09:57:57;;;;;;;14.25;6.20;;;;;;;;;;5035427;28;20092;-78
2021/10/15 10:00:30;;;;;;;11.88;6.18;;;;;;;;;;5035209;28;20409;-77
2021/10/15 10:02:57;;;;;;;10.52;5.80;;;;;;;;;;5035181;28;20054;-77
2021/10/15 10:05:24;;;;;;;11.65;6.32;;;;;;;;;;5035622;28;20046;-77
2021/10/15 10:07:52;;;;;;;13.18;5.90;;;;;;;;;;5035599;28;20099;-78
2021/10/15 10:10:22;;;;;;;22.45;11.57;;;;;;;;;;5035842;28;20389;-76
2021/10/15 10:12:51;;;;;;;15.63;7.40;;;;;;;;;;5039351;28;20468;-77
2021/10/15 10:15:20;;;;;;;14.68;7.95;;;;;;;;;;5035969;28;20049;-77
2021/10/15 10:17:52;;;;;;;16.23;8.18;;;;;;;;;;5037020;28;20053;-77
2021/10/15 10:20:24;;;;;;;13.38;7.72;;;;;;;;;;5053011;28;20050;-77
2021/10/15 10:23:00;;;;;;;16.88;8.48;;;;;;;;;;5055624;28;20037;-77
2021/10/15 10:25:29;;;;;;;15.88;7.55;;;;;;;;;;5045249;28;20107;-77
2021/10/15 10:27:57;;;;;;;12.82;6.43;;;;;;;;;;5038149;28;20053;-77
2021/10/15 10:30:42;;;;;;;11.70;5.95;;;;;;;;;;5036809;28;20460;-77
2021/10/15 10:33:09;;;;;;;10.85;5.75;;;;;;;;;;5037236;28;20110;-77
2021/10/15 10:35:36;;;;;;;15.07;7.70;;;;;;;;;;5035909;28;20054;-77
2021/10/15 10:38:31;;;;;;;11.23;5.65;;;;;;;;;;5035660;28;20460;-78
2021/10/15 10:41:28;;;;;;;11.73;6.10;;;;;;;;;;5037571;28;20099;-79
2021/10/15 10:44:19;;;;;;;8.82;4.82;;;;;;;;;;5035345;28;20049;-77
2021/10/15 10:47:18;;;;;;;12.88;5.82;;;;;;;;;;5025005;28;20243;-77
2021/10/15 10:50:12;;;;;;;10.98;5.18;;;;;;;;;;5035572;28;20119;-77
2021/10/15 10:53:08;;;;;;;10.35;5.97;;;;;;;;;;5035089;28;20103;-76
2021/10/15 10:55:42;;;;;;;13.25;5.85;;;;;;;;;;5034873;28;20544;-77
2021/10/15 10:58:33;;;;;;;13.68;6.47;;;;;;;;;;5035202;28;20060;-77
2021/10/15 11:01:25;;;;;;;11.13;6.03;;;;;;;;;;5035483;28;20499;-77
2021/10/15 11:03:53;;;;;;;10.52;5.38;;;;;;;;;;5035119;28;20060;-76
2021/10/15 11:06:19;;;;;;;12.90;6.25;;;;;;;;;;5034975;28;20582;-77
2021/10/15 11:08:46;;;;;;;11.05;6.15;;;;;;;;;;5035361;28;20064;-77
2021/10/15 11:11:43;;;;;;;10.68;5.40;;;;;;;;;;5034727;28;20563;-77
2021/10/15 11:14:21;;;;;;;11.98;5.63;;;;;;;;;;5034894;28;20128;-77
2021/10/15 11:16:48;;;;;;;10.63;5.70;;;;;;;;;;5034691;28;20120;-77
2021/10/15 11:19:19;;;;;;;12.90;6.07;;;;;;;;;;5035365;28;20049;-78
2021/10/15 11:21:45;;;;;;;;;;;;;;;;;;5035125;28;20045;-77
2021/10/15 11:24:13;;;;;;;8.95;4.47;;;;;;;;;;5035195;28;19921;-77
2021/10/15 11:26:40;;;;;;;12.07;5.07;;;;;;;;;;5056741;22;20498;-60
2021/10/15 11:29:07;;;;;;;15.43;5.32;;;;;;;;;;5033586;28;20045;-61
2021/10/15 11:31:36;;;;;;;9.40;4.65;;;;;;;;;;5033024;28;20049;-60
2021/10/15 11:34:11;;;;;;;12.32;6.15;;;;;;;;;;5033223;28;20049;-58
2021/10/15 11:36:38;;;;;;;9.05;5.30;;;;;;;;;;5033427;28;20045;-60
2021/10/15 11:39:05;;;;;;;12.02;5.65;;;;;;;;;;5033359;28;20076;-59
2021/10/15 11:41:32;;;;;;;12.90;5.78;;;;;;;;;;5033192;28;20541;-60
2021/10/15 11:43:59;;;;;;;9.98;5.15;;;;;;;;;;5033135;28;20061;-60
2021/10/15 11:46:32;;;;;;;11.90;5.53;;;;;;;;;;5032956;28;20499;-61
2021/10/15 11:49:00;;;;;;;10.98;5.25;;;;;;;;;;5033013;28;20046;-60
2021/10/15 11:51:28;;;;;;;10.77;5.63;;;;;;;;;;5033058;28;20483;-60
2021/10/15 11:53:57;;;;;;;9.45;5.32;;;;;;;;;;5032795;28;20140;-61
2021/10/15 11:56:26;;;;;;;11.93;6.07;;;;;;;;;;5024305;28;20458;-61
2021/10/15 11:58:55;;;;;;;11.70;5.97;;;;;;;;;;5013393;28;20427;-60
2021/10/15 12:01:26;;;;;;;15.02;9.02;;;;;;;;;;5013199;28;20641;-61
2021/10/15 12:03:55;;;;;;;10.95;5.75;;;;;;;;;;5013292;28;20058;-58
2021/10/15 12:06:29;;;;;;;9.32;4.68;;;;;;;;;;5013013;28;20108;-62
2021/10/15 12:08:59;;;;;;;10.77;5.60;;;;;;;;;;5013323;28;20546;-61
2021/10/15 12:11:30;;;;;;;14.48;6.55;;;;;;;;;;5012683;28;20057;-60
2021/10/15 12:13:57;;;;;;;11.88;6.20;;;;;;;;;;5012882;28;20057;-60
2021/10/15 12:16:28;;;;;;;12.05;5.25;;;;;;;;;;5013188;28;20466;-59
2021/10/15 12:19:03;;;;;;;9.35;5.63;;;;;;;;;;5012834;28;20510;-63
2021/10/15 12:21:34;;;;;;;11.13;5.82;;;;;;;;;;5012788;28;20060;-59
2021/10/15 12:24:01;;;;;;;13.13;7.60;;;;;;;;;;5012721;28;20057;-59
2021/10/15 12:26:29;;;;;;;14.73;6.78;;;;;;;;;;5013147;28;20111;-60
2021/10/15 12:28:56;;;;;;;10.80;6.22;;;;;;;;;;5013603;28;20093;-61
2021/10/15 12:31:28;;;;;;;13.55;6.68;;;;;;;;;;5012944;28;20057;-61
2021/10/15 12:34:07;;;;;;;11.45;6.45;;;;;;;;;;5012541;28;20046;-61
2021/10/15 12:36:37;;;;;;;14.00;6.18;;;;;;;;;;5012579;28;20041;-61
2021/10/15 12:39:25;;;;;;;10.40;5.32;;;;;;;;;;5012564;28;20060;-63
2021/10/15 12:41:54;;;;;;;8.73;5.03;;;;;;;;;;5013279;28;20053;-63
2021/10/15 12:44:30;;;;;;;11.93;6.13;;;;;;;;;;5013260;28;20054;-61
2021/10/15 12:47:02;;;;;;;10.43;5.30;;;;;;;;;;5012871;28;20054;-61
2021/10/15 12:49:30;;;;;;;18.58;8.48;;;;;;;;;;5013224;28;20053;-62
2021/10/15 12:51:58;;;;;;;10.98;5.90;;;;;;;;;;5013018;28;20053;-61
2021/10/15 12:54:46;;;;;;;9.85;5.47;;;;;;;;;;5012405;28;20388;-61
2021/10/15 12:57:17;;;;;;;10.30;5.57;;;;;;;;;;5012170;28;20423;-61
2021/10/15 13:00:05;;;;;;;9.32;5.20;;;;;;;;;;5012439;28;20428;-60
2021/10/15 13:02:33;;;;;;;10.77;5.53;;;;;;;;;;5012370;28;20061;-61
2021/10/15 13:05:01;;;;;;;15.10;8.55;;;;;;;;;;5012286;28;20050;-61
2021/10/15 13:07:30;;;;;;;9.15;5.18;;;;;;;;;;5011946;28;20403;-62
2021/10/15 13:09:57;;;;;;;10.95;5.60;;;;;;;;;;5012199;28;20546;-61
2021/10/15 13:12:25;;;;;;;9.88;5.20;;;;;;;;;;5012422;28;20054;-62
2021/10/15 13:14:52;;;;;;;8.27;4.13;;;;;;;;;;5012228;28;20524;-62
2021/10/15 13:17:20;;;;;;;11.18;6.05;;;;;;;;;;5012109;28;20062;-61
2021/10/15 13:19:46;;;;;;;10.00;5.28;;;;;;;;;;5012599;28;20321;-62
2021/10/15 13:22:13;;;;;;;11.40;5.15;;;;;;;;;;5012408;28;20050;-62
2021/10/15 13:24:43;;;;;;;9.23;5.03;;;;;;;;;;5016336;28;20054;-62
2021/10/15 13:27:10;;;;;;;8.63;4.95;;;;;;;;;;5016573;28;20053;-62
2021/10/15 13:29:37;;;;;;;13.18;5.53;;;;;;;;;;5016273;28;20053;-62
2021/10/15 13:32:06;;;;;;;9.32;4.22;;;;;;;;;;5016532;28;20045;-62
2021/10/15 13:34:33;;;;;;;9.85;5.30;;;;;;;;;;5015602;28;20053;-62
2021/10/15 13:37:07;;;;;;;10.85;5.22;;;;;;;;;;5015915;28;20479;-62
2021/10/15 13:39:34;;;;;;;9.10;5.15;;;;;;;;;;5016300;28;20060;-61
2021/10/15 13:42:23;;;;;;;8.50;4.57;;;;;;;;;;5016016;28;20555;-62
2021/10/15 13:45:13;;;;;;;10.55;5.65;;;;;;;;;;5015562;28;20072;-61
2021/10/15 13:47:42;;;;;;;12.02;5.85;;;;;;;;;;5015795;28;20160;-61
2021/10/15 13:50:09;;;;;;;9.35;4.50;;;;;;;;;;5015448;28;20058;-61
2021/10/15 13:52:37;;;;;;;8.07;3.95;;;;;;;;;;5015630;28;20456;-61
2021/10/15 13:55:07;;;;;;;10.13;5.60;;;;;;;;;;5015388;28;20042;-58
2021/10/15 13:57:38;;;;;;;12.53;6.77;;;;;;;;;;4997170;28;20050;-61
2021/10/15 14:00:11;;;;;;;11.85;6.00;;;;;;;;;;4995392;28;20055;-61
2021/10/15 14:02:41;;;;;;;10.48;6.03;;;;;;;;;;4995565;28;20054;-61
2021/10/15 14:05:08;;;;;;;;;;;;;;;;;;4995991;28;20054;-61
2021/10/15 14:07:35;;;;;;;17.55;7.18;;;;;;;;;;4995318;28;19933;-61
2021/10/15 14:10:02;;;;;;;14.23;7.55;;;;;;;;;;4995340;28;20061;-61
2021/10/15 14:12:29;;;;;;;13.48;6.93;;;;;;;;;;4995532;28;20057;-60
2021/10/15 14:15:00;;;;;;;11.25;6.50;;;;;;;;;;4995352;28;20046;-60
2021/10/15 14:17:27;;;;;;;13.38;5.57;;;;;;;;;;4995789;28;20062;-62
2021/10/15 14:19:54;;;;;;;12.43;6.50;;;;;;;;;;4995249;28;20085;-63
2021/10/15 14:22:23;;;;;;;12.98;6.30;;;;;;;;;;4995337;28;20130;-61
2021/10/15 14:24:50;;;;;;;9.77;4.72;;;;;;;;;;4995852;28;20570;-62
2021/10/15 14:27:18;;;;;;;9.95;5.78;;;;;;;;;;4994901;28;20061;-61
2021/10/15 14:29:47;;;;;;;9.75;5.32;;;;;;;;;;4995261;28;20061;-58
2021/10/15 14:32:15;;;;;;;9.68;5.30;;;;;;;;;;4995521;28;20488;-60
2021/10/15 14:34:42;;;;;;;10.85;5.95;;;;;;;;;;4994390;28;20054;-61
2021/10/15 14:37:09;;;;;;;12.65;6.35;;;;;;;;;;4994534;28;20054;-61
2021/10/15 14:39:36;;;;;;;11.27;6.05;;;;;;;;;;4994673;28;20054;-62
2021/10/15 14:42:06;;;;;;;11.13;5.95;;;;;;;;;;4994796;28;20054;-61
2021/10/15 14:44:33;;;;;;;8.63;4.80;;;;;;;;;;4994788;28;20062;-58
2021/10/15 14:47:00;;;;;;;9.45;5.18;;;;;;;;;;4995227;28;20057;-61
2021/10/15 14:49:28;;;;;;;9.90;4.80;;;;;;;;;;4995041;28;20062;-61
2021/10/15 14:51:55;;;;;;;8.43;4.68;;;;;;;;;;4994994;28;20046;-61
2021/10/15 14:54:23;;;;;;;9.55;5.55;;;;;;;;;;4995619;28;20050;-59
2021/10/15 14:56:49;;;;;;;11.98;5.47;;;;;;;;;;5006477;28;20522;-60
2021/10/15 14:59:16;;;;;;;12.65;6.25;;;;;;;;;;5014153;28;20053;-60
2021/10/15 15:01:44;;;;;;;12.05;5.43;;;;;;;;;;5014198;28;20061;-61
2021/10/15 15:04:12;;;;;;;9.35;5.30;;;;;;;;;;5013914;28;20052;-62
2021/10/15 15:06:43;;;;;;;11.10;4.95;;;;;;;;;;5013897;28;20061;-59
2021/10/15 15:09:10;;;;;;;7.68;4.65;;;;;;;;;;5013978;28;20141;-59
2021/10/15 15:11:37;;;;;;;11.52;5.15;;;;;;;;;;5013995;28;20057;-61
2021/10/15 15:14:04;;;;;;;11.77;5.38;;;;;;;;;;5014294;28;20438;-60
2021/10/15 15:16:31;;;;;;;12.98;5.10;;;;;;;;;;5013907;28;20081;-59
2021/10/15 15:18:58;;;;;;;11.95;5.63;;;;;;;;;;5014200;28;20140;-59
2021/10/15 15:21:25;;;;;;;11.95;5.63;;;;;;;;;;5013984;28;20045;-61
2021/10/15 15:23:53;;;;;;;8.95;4.82;;;;;;;;;;5013831;28;20060;-61
2021/10/15 15:26:21;;;;;;;11.35;5.45;;;;;;;;;;5013580;28;20387;-61